Time;durP1;ratioP1;P1;durP2;ratioP2;P2;SDS_P1;SDS_P2;PMS_P1;PMS_P2;Temp;Humidity;BMP_temperature;BMP_pressure;BME280_temperature;BME280_humidity;BME280_pressure;Samples;Min_cycle;Max_cycle;Signal;HPM_P1;HPM_P2
2021/08/10 00:01:10;;;;;;;6.90;1.90;;;;;;;;;;5028347;28;37645;-77
2021/08/10 00:03:37;;;;;;;8.52;1.92;;;;;;;;;;5053730;28;39156;-76
2021/08/10 00:06:03;;;;;;;7.13;2.17;;;;;;;;;;5067014;28;39456;-77
2021/08/10 00:08:30;;;;;;;6.25;2.03;;;;;;;;;;5067057;28;39288;-76
2021/08/10 00:10:56;;;;;;;8.40;2.38;;;;;;;;;;5066886;28;36708;-76
2021/08/10 00:13:23;;;;;;;8.88;2.70;;;;;;;;;;5067470;28;40148;-76
2021/08/10 00:15:49;;;;;;;6.63;2.15;;;;;;;;;;5066769;28;38716;-76
2021/08/10 00:18:16;;;;;;;7.07;2.30;;;;;;;;;;5066630;28;38320;-76
2021/08/10 00:20:42;;;;;;;10.27;2.30;;;;;;;;;;5040513;28;38356;-76
2021/08/10 00:23:09;;;;;;;8.15;2.28;;;;;;;;;;5047142;28;38937;-76
2021/08/10 00:25:35;;;;;;;5.88;2.08;;;;;;;;;;5045398;28;38668;-76
2021/08/10 00:28:02;;;;;;;12.68;3.10;;;;;;;;;;5047192;28;38017;-75
2021/08/10 00:30:28;;;;;;;6.00;2.05;;;;;;;;;;5044638;28;37550;-77
2021/08/10 00:32:55;;;;;;;7.63;2.45;;;;;;;;;;5046204;28;40164;-76
2021/08/10 00:35:22;;;;;;;7.80;2.30;;;;;;;;;;5045670;28;39632;-76
2021/08/10 00:37:48;;;;;;;8.13;2.67;;;;;;;;;;5046758;28;38310;-76
2021/08/10 00:40:15;;;;;;;10.85;3.25;;;;;;;;;;5046475;28;37085;-76
2021/08/10 00:42:42;;;;;;;5.57;2.42;;;;;;;;;;5047933;28;39476;-76
2021/08/10 00:45:09;;;;;;;8.25;2.60;;;;;;;;;;5046555;28;39225;-76
2021/08/10 00:47:35;;;;;;;10.95;2.67;;;;;;;;;;5029472;28;38366;-76
2021/08/10 00:50:01;;;;;;;9.18;2.70;;;;;;;;;;5047966;28;36646;-77
2021/08/10 00:52:29;;;;;;;7.78;2.20;;;;;;;;;;5028802;28;39265;-78
2021/08/10 00:54:55;;;;;;;8.88;2.63;;;;;;;;;;5030864;28;39213;-76
2021/08/10 00:57:21;;;;;;;13.15;2.95;;;;;;;;;;5046275;28;38142;-77
2021/08/10 00:59:48;;;;;;;8.98;3.00;;;;;;;;;;5046753;28;37653;-76
2021/08/10 01:02:14;;;;;;;6.47;2.45;;;;;;;;;;5043700;28;40496;-78
2021/08/10 01:04:41;;;;;;;9.77;2.85;;;;;;;;;;5045935;28;38771;-76
2021/08/10 01:07:19;;;;;;;8.75;2.50;;;;;;;;;;5043512;28;39014;-76
2021/08/10 01:10:02;;;;;;;8.38;2.33;;;;;;;;;;5047962;28;38093;-77
2021/08/10 01:12:34;;;;;;;9.95;2.80;;;;;;;;;;5049465;28;38395;-75
2021/08/10 01:15:03;;;;;;;12.65;2.97;;;;;;;;;;5049587;28;39668;-78
2021/08/10 01:17:36;;;;;;;6.35;2.65;;;;;;;;;;5030647;28;46726;-77
2021/08/10 01:20:21;;;;;;;9.30;2.60;;;;;;;;;;5049675;28;36703;-79
2021/08/10 01:22:50;;;;;;;10.40;2.75;;;;;;;;;;5041408;28;48580;-77
2021/08/10 01:25:26;;;;;;;8.23;2.53;;;;;;;;;;5030270;28;38366;-76
2021/08/10 01:28:11;;;;;;;13.38;3.03;;;;;;;;;;5049095;28;38190;-77
2021/08/10 01:30:42;;;;;;;7.25;2.45;;;;;;;;;;5026373;28;46999;-76
2021/08/10 01:33:09;;;;;;;7.57;3.00;;;;;;;;;;5027374;28;40253;-76
2021/08/10 01:35:35;;;;;;;12.88;3.10;;;;;;;;;;5032777;28;38424;-76
2021/08/10 01:38:02;;;;;;;9.23;3.53;;;;;;;;;;5031775;28;38333;-76
2021/08/10 01:40:30;;;;;;;11.75;3.15;;;;;;;;;;5015865;28;37350;-76
2021/08/10 01:43:00;;;;;;;11.07;3.60;;;;;;;;;;5028998;28;40182;-77
2021/08/10 01:45:26;;;;;;;12.93;3.40;;;;;;;;;;5033213;28;47742;-76
2021/08/10 01:47:53;;;;;;;8.43;3.00;;;;;;;;;;5049811;28;38419;-76
2021/08/10 01:50:20;;;;;;;7.20;2.92;;;;;;;;;;5030700;28;37969;-76
2021/08/10 01:52:47;;;;;;;11.15;3.53;;;;;;;;;;5050311;28;38769;-77
2021/08/10 01:55:14;;;;;;;8.60;2.90;;;;;;;;;;5049101;28;40011;-76
2021/08/10 01:57:41;;;;;;;13.02;3.25;;;;;;;;;;5031523;28;38838;-76
2021/08/10 02:00:07;;;;;;;10.43;3.22;;;;;;;;;;5049579;28;36461;-75
2021/08/10 02:02:34;;;;;;;8.95;3.25;;;;;;;;;;5054865;28;39140;-77
2021/08/10 02:05:01;;;;;;;10.80;2.97;;;;;;;;;;5070315;28;39814;-77
2021/08/10 02:07:27;;;;;;;10.02;3.60;;;;;;;;;;5050103;28;39841;-76
2021/08/10 02:09:54;;;;;;;8.85;3.33;;;;;;;;;;5051750;28;38594;-77
2021/08/10 02:12:21;;;;;;;7.95;2.67;;;;;;;;;;5050782;28;37619;-77
2021/08/10 02:14:47;;;;;;;9.15;3.75;;;;;;;;;;5051882;28;39042;-77
2021/08/10 02:17:15;;;;;;;8.00;3.47;;;;;;;;;;5068218;28;38448;-76
2021/08/10 02:19:42;;;;;;;14.70;4.32;;;;;;;;;;5043459;28;37747;-76
2021/08/10 02:22:10;;;;;;;9.70;3.65;;;;;;;;;;5048255;28;38703;-76
2021/08/10 02:24:44;;;;;;;10.38;3.30;;;;;;;;;;5046932;28;39904;-76
2021/08/10 02:27:12;;;;;;;9.88;3.38;;;;;;;;;;5049021;28;40564;-76
2021/08/10 02:29:41;;;;;;;11.82;3.30;;;;;;;;;;5032148;28;37498;-77
2021/08/10 02:32:09;;;;;;;8.30;3.67;;;;;;;;;;5031159;28;39768;-76
2021/08/10 02:34:37;;;;;;;6.25;3.20;;;;;;;;;;5049208;28;38593;-76
2021/08/10 02:37:05;;;;;;;7.13;3.45;;;;;;;;;;5058668;28;39558;-76
2021/08/10 02:39:32;;;;;;;11.82;3.60;;;;;;;;;;5062567;28;36993;-77
2021/08/10 02:41:59;;;;;;;11.25;3.38;;;;;;;;;;5049369;28;40501;-76
2021/08/10 02:44:26;;;;;;;13.70;3.53;;;;;;;;;;5046541;28;40485;-76
2021/08/10 02:46:53;;;;;;;8.98;3.58;;;;;;;;;;5047238;28;38548;-77
2021/08/10 02:49:19;;;;;;;9.07;4.10;;;;;;;;;;5047077;28;38078;-76
2021/08/10 02:51:46;;;;;;;9.80;3.90;;;;;;;;;;5046365;28;39847;-76
2021/08/10 02:54:13;;;;;;;10.13;4.28;;;;;;;;;;5050278;28;39749;-77
2021/08/10 02:56:43;;;;;;;11.45;4.45;;;;;;;;;;5029758;28;38776;-76
2021/08/10 02:59:18;;;;;;;9.30;4.28;;;;;;;;;;5029472;28;36914;-76
2021/08/10 03:02:07;;;;;;;10.63;4.15;;;;;;;;;;5030283;28;40224;-76
2021/08/10 03:04:34;;;;;;;14.35;5.53;;;;;;;;;;5048054;28;49337;-76
2021/08/10 03:07:00;;;;;;;13.43;5.00;;;;;;;;;;5030153;28;38162;-79
2021/08/10 03:09:27;;;;;;;12.93;5.18;;;;;;;;;;5030826;28;46846;-77
2021/08/10 03:11:56;;;;;;;11.98;5.45;;;;;;;;;;5034790;28;38636;-77
2021/08/10 03:14:24;;;;;;;9.10;4.90;;;;;;;;;;5034701;28;39368;-77
2021/08/10 03:16:52;;;;;;;10.82;5.38;;;;;;;;;;5032300;28;39596;-77
2021/08/10 03:19:19;;;;;;;12.05;5.28;;;;;;;;;;5048623;28;37769;-77
2021/08/10 03:21:46;;;;;;;11.07;4.82;;;;;;;;;;5050137;28;38740;-77
2021/08/10 03:24:13;;;;;;;12.63;4.75;;;;;;;;;;5031273;28;39201;-77
2021/08/10 03:26:41;;;;;;;14.50;4.90;;;;;;;;;;5030279;28;40384;-77
2021/08/10 03:29:08;;;;;;;13.55;6.20;;;;;;;;;;5067132;28;37765;-76
2021/08/10 03:31:38;;;;;;;13.77;5.50;;;;;;;;;;5048680;28;39561;-77
2021/08/10 03:34:04;;;;;;;10.15;4.53;;;;;;;;;;5048542;28;40164;-77
2021/08/10 03:36:31;;;;;;;11.18;5.13;;;;;;;;;;5049486;28;38082;-77
2021/08/10 03:38:57;;;;;;;11.65;6.05;;;;;;;;;;5066752;28;36743;-76
2021/08/10 03:41:26;;;;;;;14.27;5.38;;;;;;;;;;5044974;28;38515;-77
2021/08/10 03:43:53;;;;;;;12.88;5.43;;;;;;;;;;5046548;28;39561;-77
2021/08/10 03:46:19;;;;;;;12.10;4.63;;;;;;;;;;5028709;28;39174;-77
2021/08/10 03:48:46;;;;;;;10.30;5.57;;;;;;;;;;5026446;28;37480;-77
2021/08/10 03:51:13;;;;;;;11.48;5.47;;;;;;;;;;5046994;28;39534;-78
2021/08/10 03:53:40;;;;;;;8.82;5.03;;;;;;;;;;5046167;28;38902;-78
2021/08/10 03:56:06;;;;;;;9.27;4.80;;;;;;;;;;5045681;28;38355;-78
2021/08/10 03:58:34;;;;;;;10.13;5.07;;;;;;;;;;5029473;28;38261;-78
2021/08/10 04:01:02;;;;;;;8.43;4.95;;;;;;;;;;5029195;28;38726;-78
2021/08/10 04:03:31;;;;;;;13.73;5.97;;;;;;;;;;5028379;28;46930;-78
2021/08/10 04:06:01;;;;;;;12.00;5.43;;;;;;;;;;5028151;28;39548;-78
2021/08/10 04:08:27;;;;;;;9.25;5.32;;;;;;;;;;5046257;28;48209;-78
2021/08/10 04:10:54;;;;;;;13.88;6.07;;;;;;;;;;5046039;28;38530;-78
2021/08/10 04:13:20;;;;;;;9.07;4.90;;;;;;;;;;5029390;28;40186;-78
2021/08/10 04:15:48;;;;;;;12.38;5.80;;;;;;;;;;5028115;28;38987;-78
2021/08/10 04:18:16;;;;;;;18.55;6.40;;;;;;;;;;5032979;28;37609;-78
2021/08/10 04:20:46;;;;;;;12.68;6.00;;;;;;;;;;5032902;28;39835;-78
2021/08/10 04:23:13;;;;;;;9.60;5.88;;;;;;;;;;5046447;28;39633;-78
2021/08/10 04:25:39;;;;;;;15.38;6.85;;;;;;;;;;5028119;28;39515;-78
2021/08/10 04:28:06;;;;;;;14.07;6.57;;;;;;;;;;5047233;28;38009;-78
2021/08/10 04:30:32;;;;;;;14.95;6.88;;;;;;;;;;5027933;28;37804;-78
2021/08/10 04:32:58;;;;;;;18.77;7.03;;;;;;;;;;5028303;28;39317;-78
2021/08/10 04:35:25;;;;;;;14.13;6.53;;;;;;;;;;5027384;28;38630;-78
2021/08/10 04:37:52;;;;;;;12.05;5.95;;;;;;;;;;5028060;28;38189;-78
2021/08/10 04:40:18;;;;;;;11.27;6.60;;;;;;;;;;5045308;28;39937;-78
2021/08/10 04:42:45;;;;;;;14.88;7.55;;;;;;;;;;5046205;28;40551;-78
2021/08/10 04:45:11;;;;;;;15.52;6.70;;;;;;;;;;5047825;28;39314;-77
2021/08/10 04:47:38;;;;;;;14.30;6.32;;;;;;;;;;5048936;28;37797;-78
2021/08/10 04:50:04;;;;;;;13.90;6.15;;;;;;;;;;5049667;28;39056;-78
2021/08/10 04:52:31;;;;;;;12.85;6.18;;;;;;;;;;5036468;28;47636;-78
2021/08/10 04:54:57;;;;;;;11.73;5.68;;;;;;;;;;5038626;28;38821;-78
2021/08/10 04:57:24;;;;;;;12.73;5.65;;;;;;;;;;5049191;28;37205;-78
2021/08/10 04:59:51;;;;;;;15.38;6.32;;;;;;;;;;5048904;28;39081;-78
2021/08/10 05:02:18;;;;;;;12.18;5.88;;;;;;;;;;5031036;28;40257;-78
2021/08/10 05:04:44;;;;;;;13.32;5.30;;;;;;;;;;5031072;28;39160;-78
2021/08/10 05:07:11;;;;;;;8.75;5.68;;;;;;;;;;5049098;28;37175;-78
2021/08/10 05:09:37;;;;;;;12.63;5.57;;;;;;;;;;5050138;28;40088;-78
2021/08/10 05:12:04;;;;;;;12.32;5.72;;;;;;;;;;5049139;28;38949;-77
2021/08/10 05:14:31;;;;;;;16.38;5.47;;;;;;;;;;5032942;28;38973;-78
2021/08/10 05:16:57;;;;;;;13.18;5.65;;;;;;;;;;5032752;28;38437;-78
2021/08/10 05:19:24;;;;;;;12.15;5.50;;;;;;;;;;5030807;28;39524;-78
2021/08/10 05:21:50;;;;;;;11.57;5.20;;;;;;;;;;5050246;28;39081;-78
2021/08/10 05:24:16;;;;;;;14.32;5.80;;;;;;;;;;5032580;28;39151;-78
2021/08/10 05:26:43;;;;;;;15.07;6.05;;;;;;;;;;5055585;28;37090;-78
2021/08/10 05:29:09;;;;;;;11.43;5.57;;;;;;;;;;5069704;28;39171;-78
2021/08/10 05:31:36;;;;;;;13.77;5.90;;;;;;;;;;5067729;28;38381;-78
2021/08/10 05:34:02;;;;;;;9.60;5.65;;;;;;;;;;5068070;28;39668;-76
2021/08/10 05:36:28;;;;;;;13.02;5.63;;;;;;;;;;5050937;28;36700;-78
2021/08/10 05:38:55;;;;;;;10.07;4.78;;;;;;;;;;5050152;28;40800;-78
2021/08/10 05:41:22;;;;;;;11.38;5.68;;;;;;;;;;5047683;28;39152;-78
2021/08/10 05:43:49;;;;;;;13.60;5.43;;;;;;;;;;5048957;28;39594;-77
2021/08/10 05:46:15;;;;;;;13.60;5.80;;;;;;;;;;5049749;28;36910;-77
2021/08/10 05:48:41;;;;;;;12.48;4.93;;;;;;;;;;5050518;28;39497;-77
2021/08/10 05:51:08;;;;;;;11.77;5.65;;;;;;;;;;5032145;28;39353;-77
2021/08/10 05:53:35;;;;;;;11.30;5.20;;;;;;;;;;5033427;28;39119;-78
2021/08/10 05:56:01;;;;;;;19.02;5.68;;;;;;;;;;5049033;28;36785;-77
2021/08/10 05:58:28;;;;;;;10.00;5.30;;;;;;;;;;5049772;28;48438;-77
2021/08/10 06:00:55;;;;;;;10.57;4.80;;;;;;;;;;5049456;28;38327;-78
2021/08/10 06:03:21;;;;;;;9.07;4.53;;;;;;;;;;5030118;28;39265;-77
2021/08/10 06:05:47;;;;;;;12.15;4.95;;;;;;;;;;5031287;28;37014;-77
2021/08/10 06:08:14;;;;;;;12.40;5.10;;;;;;;;;;5030517;28;38930;-77
2021/08/10 06:10:40;;;;;;;12.35;5.22;;;;;;;;;;5048545;28;39414;-77
2021/08/10 06:13:06;;;;;;;10.77;4.30;;;;;;;;;;5049447;28;39311;-77
2021/08/10 06:15:33;;;;;;;9.13;4.13;;;;;;;;;;5030592;28;36948;-77
2021/08/10 06:17:59;;;;;;;12.48;4.35;;;;;;;;;;5031829;28;39187;-77
2021/08/10 06:20:25;;;;;;;10.85;3.92;;;;;;;;;;5047545;28;39408;-77
2021/08/10 06:22:52;;;;;;;11.07;4.43;;;;;;;;;;5031124;28;38921;-77
2021/08/10 06:25:18;;;;;;;7.72;4.30;;;;;;;;;;5049306;28;37115;-77
2021/08/10 06:27:44;;;;;;;7.93;3.47;;;;;;;;;;5050831;28;39169;-78
2021/08/10 06:30:11;;;;;;;10.35;4.18;;;;;;;;;;5031048;28;39253;-77
2021/08/10 06:32:37;;;;;;;11.75;3.53;;;;;;;;;;5050432;28;39692;-77
2021/08/10 06:35:04;;;;;;;10.35;4.10;;;;;;;;;;5032671;28;38341;-77
2021/08/10 06:37:30;;;;;;;9.32;3.50;;;;;;;;;;5031603;28;47094;-77
2021/08/10 06:39:57;;;;;;;9.95;4.07;;;;;;;;;;5032731;28;39240;-78
2021/08/10 06:42:23;;;;;;;9.38;3.83;;;;;;;;;;5046680;28;39839;-78
2021/08/10 06:44:50;;;;;;;8.73;3.55;;;;;;;;;;5047257;28;38312;-77
2021/08/10 06:47:16;;;;;;;7.75;3.13;;;;;;;;;;5048063;28;38784;-77
2021/08/10 06:49:43;;;;;;;8.98;3.58;;;;;;;;;;5047934;28;40563;-77
2021/08/10 06:52:10;;;;;;;7.95;3.30;;;;;;;;;;5046203;28;37260;-77
2021/08/10 06:54:37;;;;;;;8.68;3.47;;;;;;;;;;5031579;28;35529;-77
2021/08/10 06:57:07;;;;;;;8.00;3.25;;;;;;;;;;5030083;28;40452;-77
2021/08/10 06:59:38;;;;;;;9.68;3.45;;;;;;;;;;5049042;28;39505;-77
2021/08/10 07:02:05;;;;;;;5.88;2.80;;;;;;;;;;5029495;28;39396;-77
2021/08/10 07:04:31;;;;;;;9.05;3.25;;;;;;;;;;5050203;28;38206;-77
2021/08/10 07:07:00;;;;;;;8.50;2.85;;;;;;;;;;5031395;28;39033;-78
2021/08/10 07:09:27;;;;;;;5.88;2.80;;;;;;;;;;5031794;28;46470;-77
2021/08/10 07:11:53;;;;;;;5.97;2.75;;;;;;;;;;5030235;28;38055;-78
2021/08/10 07:14:19;;;;;;;8.10;3.05;;;;;;;;;;5030038;28;37237;-78
2021/08/10 07:16:46;;;;;;;9.18;3.05;;;;;;;;;;5047807;28;39181;-78
2021/08/10 07:19:13;;;;;;;8.55;3.28;;;;;;;;;;5027482;28;39142;-77
2021/08/10 07:21:40;;;;;;;6.78;3.08;;;;;;;;;;5027803;28;38362;-78
2021/08/10 07:24:06;;;;;;;7.53;2.95;;;;;;;;;;5032441;28;37179;-77
2021/08/10 07:26:32;;;;;;;9.73;3.10;;;;;;;;;;5043827;28;39641;-77
2021/08/10 07:28:59;;;;;;;9.45;3.38;;;;;;;;;;5051327;28;39405;-77
2021/08/10 07:31:26;;;;;;;10.02;4.00;;;;;;;;;;5050073;28;37601;-77
2021/08/10 07:33:52;;;;;;;6.13;3.05;;;;;;;;;;5051053;28;38362;-77
2021/08/10 07:36:19;;;;;;;8.75;3.25;;;;;;;;;;5071454;28;39596;-77
2021/08/10 07:38:46;;;;;;;7.18;3.28;;;;;;;;;;5056650;28;40266;-78
2021/08/10 07:41:12;;;;;;;8.60;3.42;;;;;;;;;;5053232;28;38900;-77
2021/08/10 07:43:39;;;;;;;5.75;2.95;;;;;;;;;;5038705;28;37000;-78
2021/08/10 07:46:05;;;;;;;7.95;2.90;;;;;;;;;;5030301;28;39190;-77
2021/08/10 07:48:31;;;;;;;8.55;3.47;;;;;;;;;;5030461;28;39282;-78
2021/08/10 07:50:58;;;;;;;6.90;3.15;;;;;;;;;;5030414;28;40480;-78
2021/08/10 07:53:24;;;;;;;6.93;3.03;;;;;;;;;;5051125;28;37096;-77
2021/08/10 07:55:51;;;;;;;8.00;3.15;;;;;;;;;;5030224;28;38711;-78
2021/08/10 07:58:18;;;;;;;6.80;2.85;;;;;;;;;;5049487;28;40044;-77
2021/08/10 08:00:45;;;;;;;6.32;2.42;;;;;;;;;;5044886;28;37107;-78
2021/08/10 08:03:11;;;;;;;6.68;3.05;;;;;;;;;;5069174;28;37716;-77
2021/08/10 08:05:38;;;;;;;5.85;2.35;;;;;;;;;;5067204;28;38441;-78
2021/08/10 08:08:05;;;;;;;7.57;3.53;;;;;;;;;;5048630;28;39941;-77
2021/08/10 08:10:31;;;;;;;6.38;2.80;;;;;;;;;;5050059;28;39851;-78
2021/08/10 08:12:58;;;;;;;7.10;2.55;;;;;;;;;;5068493;28;37738;-77
2021/08/10 08:15:25;;;;;;;8.02;2.95;;;;;;;;;;5047078;28;39063;-78
2021/08/10 08:17:51;;;;;;;5.43;2.55;;;;;;;;;;5040344;28;39168;-77
2021/08/10 08:20:18;;;;;;;6.60;2.88;;;;;;;;;;5031355;28;38244;-77
2021/08/10 08:22:45;;;;;;;9.00;3.22;;;;;;;;;;5047246;28;36624;-79
2021/08/10 08:25:12;;;;;;;6.72;2.80;;;;;;;;;;5029523;28;40226;-77
2021/08/10 08:27:39;;;;;;;4.93;2.45;;;;;;;;;;5030986;28;39110;-77
2021/08/10 08:30:06;;;;;;;5.07;2.22;;;;;;;;;;5045471;28;38094;-77
2021/08/10 08:32:32;;;;;;;5.38;2.92;;;;;;;;;;5048225;28;37964;-77
2021/08/10 08:34:58;;;;;;;4.90;2.83;;;;;;;;;;5049927;28;39191;-77
2021/08/10 08:37:25;;;;;;;6.80;2.70;;;;;;;;;;5050936;28;39153;-77
2021/08/10 08:39:51;;;;;;;7.13;2.42;;;;;;;;;;5070595;28;38624;-77
2021/08/10 08:42:18;;;;;;;6.05;2.53;;;;;;;;;;5069250;28;37248;-77
2021/08/10 08:44:44;;;;;;;8.23;3.72;;;;;;;;;;5068215;28;39083;-77
2021/08/10 08:47:11;;;;;;;10.32;3.08;;;;;;;;;;5050341;28;39264;-77
2021/08/10 08:49:38;;;;;;;9.50;2.72;;;;;;;;;;5070490;28;39677;-77
2021/08/10 08:52:06;;;;;;;7.47;3.03;;;;;;;;;;5050952;28;38131;-77
2021/08/10 08:54:33;;;;;;;6.78;2.63;;;;;;;;;;5053209;28;40709;-77
2021/08/10 08:56:59;;;;;;;4.90;2.80;;;;;;;;;;5052184;28;39358;-77
2021/08/10 08:59:26;;;;;;;7.32;2.90;;;;;;;;;;5053408;28;38237;-77
2021/08/10 09:01:52;;;;;;;7.95;3.10;;;;;;;;;;5052603;28;37461;-78
2021/08/10 09:04:19;;;;;;;9.15;2.80;;;;;;;;;;5042469;28;39449;-77
2021/08/10 09:06:46;;;;;;;6.88;2.70;;;;;;;;;;5050970;28;39876;-78
2021/08/10 09:09:21;;;;;;;6.45;2.47;;;;;;;;;;5070724;28;38422;-77
2021/08/10 09:11:49;;;;;;;7.07;2.80;;;;;;;;;;5051703;28;36849;-77
2021/08/10 09:14:16;;;;;;;6.85;2.45;;;;;;;;;;5053290;28;40442;-77
2021/08/10 09:17:11;;;;;;;7.65;2.67;;;;;;;;;;5063785;28;39271;-77
2021/08/10 09:19:42;;;;;;;6.57;2.47;;;;;;;;;;5031138;28;47020;-77
2021/08/10 09:22:22;;;;;;;8.63;2.50;;;;;;;;;;5033140;28;37862;-77
2021/08/10 09:24:51;;;;;;;8.02;2.17;;;;;;;;;;5059086;28;39016;-77
2021/08/10 09:27:23;;;;;;;11.23;3.53;;;;;;;;;;5051838;28;40511;-77
2021/08/10 09:29:50;;;;;;;7.68;2.80;;;;;;;;;;5053021;28;39018;-77
2021/08/10 09:32:16;;;;;;;8.32;3.22;;;;;;;;;;5055510;28;35585;-78
2021/08/10 09:34:43;;;;;;;7.07;2.60;;;;;;;;;;5058167;28;37522;-77
2021/08/10 09:37:16;;;;;;;6.22;2.58;;;;;;;;;;5054675;28;39711;-77
2021/08/10 09:39:43;;;;;;;7.70;2.67;;;;;;;;;;5056704;28;39246;-77
2021/08/10 09:42:13;;;;;;;6.82;2.42;;;;;;;;;;5072340;28;37156;-77
2021/08/10 09:44:58;;;;;;;7.97;2.78;;;;;;;;;;5055295;28;39674;-77
2021/08/10 09:47:34;;;;;;;6.80;2.70;;;;;;;;;;5071130;28;39152;-77
2021/08/10 09:50:01;;;;;;;7.68;3.03;;;;;;;;;;5070800;28;38976;-78
2021/08/10 09:52:28;;;;;;;6.53;2.65;;;;;;;;;;5052611;28;38035;-78
2021/08/10 09:54:55;;;;;;;6.60;2.60;;;;;;;;;;5039276;28;40655;-78
2021/08/10 09:57:21;;;;;;;10.23;3.13;;;;;;;;;;5051115;28;37741;-77
2021/08/10 09:59:48;;;;;;;7.20;2.70;;;;;;;;;;5052525;28;38878;-77
2021/08/10 10:02:19;;;;;;;6.53;2.70;;;;;;;;;;5051535;28;37999;-78
2021/08/10 10:04:49;;;;;;;6.38;2.85;;;;;;;;;;5031773;28;38346;-78
2021/08/10 10:07:16;;;;;;;6.90;2.90;;;;;;;;;;5047530;28;39739;-77
2021/08/10 10:09:42;;;;;;;8.07;3.05;;;;;;;;;;5032545;28;39337;-78
2021/08/10 10:12:09;;;;;;;7.80;3.15;;;;;;;;;;5032992;28;37415;-77
2021/08/10 10:14:36;;;;;;;8.27;2.92;;;;;;;;;;5052721;28;40048;-76
2021/08/10 10:17:03;;;;;;;7.45;3.05;;;;;;;;;;5025672;28;39625;-77
2021/08/10 10:19:30;;;;;;;6.57;2.72;;;;;;;;;;5033023;28;39290;-77
2021/08/10 10:21:58;;;;;;;6.72;2.67;;;;;;;;;;5051588;28;38108;-77
2021/08/10 10:24:25;;;;;;;7.70;2.70;;;;;;;;;;5050691;28;39199;-77
2021/08/10 10:26:54;;;;;;;7.10;3.00;;;;;;;;;;5050912;28;39547;-78
2021/08/10 10:29:21;;;;;;;9.18;2.97;;;;;;;;;;5050422;28;39291;-77
2021/08/10 10:31:47;;;;;;;7.40;2.83;;;;;;;;;;5049965;28;36804;-78
2021/08/10 10:34:14;;;;;;;6.53;2.63;;;;;;;;;;5048883;28;40044;-77
2021/08/10 10:36:44;;;;;;;7.32;2.85;;;;;;;;;;5046233;28;38657;-78
2021/08/10 10:39:12;;;;;;;5.90;2.90;;;;;;;;;;5029547;28;39696;-78
2021/08/10 10:41:39;;;;;;;5.72;2.80;;;;;;;;;;5047423;28;37224;-78
2021/08/10 10:44:07;;;;;;;8.90;2.85;;;;;;;;;;5028771;28;39626;-78
2021/08/10 10:46:37;;;;;;;5.78;3.00;;;;;;;;;;5049709;28;39144;-78
2021/08/10 10:49:05;;;;;;;5.68;2.67;;;;;;;;;;5031404;28;39286;-77
2021/08/10 10:51:35;;;;;;;7.45;3.22;;;;;;;;;;5050747;28;37615;-79
2021/08/10 10:54:22;;;;;;;6.82;2.80;;;;;;;;;;5050728;28;39090;-78
2021/08/10 10:56:49;;;;;;;8.30;3.03;;;;;;;;;;5050681;28;50040;-79
2021/08/10 10:59:22;;;;;;;5.28;2.30;;;;;;;;;;5051595;28;38802;-78
2021/08/10 11:01:48;;;;;;;5.47;2.45;;;;;;;;;;5033724;28;37766;-78
2021/08/10 11:04:16;;;;;;;6.93;2.92;;;;;;;;;;5032070;28;39346;-79
2021/08/10 11:06:50;;;;;;;5.88;2.50;;;;;;;;;;5030879;28;39562;-78
2021/08/10 11:09:34;;;;;;;6.40;2.80;;;;;;;;;;5048533;28;38256;-78
2021/08/10 11:12:01;;;;;;;3.88;2.60;;;;;;;;;;5048951;28;37242;-78
2021/08/10 11:14:39;;;;;;;6.78;2.58;;;;;;;;;;5029781;28;47050;-78
2021/08/10 11:17:12;;;;;;;4.80;2.58;;;;;;;;;;5028250;28;38873;-78
2021/08/10 11:19:39;;;;;;;4.20;2.70;;;;;;;;;;5028004;28;39844;-78
2021/08/10 11:22:17;;;;;;;6.20;2.65;;;;;;;;;;5030273;28;37535;-77
2021/08/10 11:24:45;;;;;;;7.13;3.00;;;;;;;;;;5031016;28;39662;-78
2021/08/10 11:27:30;;;;;;;7.60;2.60;;;;;;;;;;5047915;28;39682;-78
2021/08/10 11:29:56;;;;;;;5.68;2.70;;;;;;;;;;5029208;28;39190;-78
2021/08/10 11:32:37;;;;;;;5.60;2.70;;;;;;;;;;5046378;28;37208;-77
2021/08/10 11:35:23;;;;;;;8.65;3.35;;;;;;;;;;5027031;28;38737;-78
2021/08/10 11:38:04;;;;;;;6.07;2.42;;;;;;;;;;5017243;28;48445;-78
2021/08/10 11:40:36;;;;;;;4.72;2.70;;;;;;;;;;5014021;28;47106;-78
2021/08/10 11:43:03;;;;;;;7.88;2.53;;;;;;;;;;5046681;28;37990;-77
2021/08/10 11:45:37;;;;;;;5.18;2.97;;;;;;;;;;5045388;28;40659;-78
2021/08/10 11:48:03;;;;;;;6.35;2.92;;;;;;;;;;5027946;28;39518;-77
2021/08/10 11:50:31;;;;;;;5.88;2.58;;;;;;;;;;5046617;28;38331;-78
2021/08/10 11:52:58;;;;;;;5.38;2.72;;;;;;;;;;5046535;28;36743;-79
2021/08/10 11:55:29;;;;;;;4.13;2.45;;;;;;;;;;5046383;28;38696;-80
2021/08/10 11:57:56;;;;;;;4.28;2.70;;;;;;;;;;5029862;28;39740;-79
2021/08/10 12:00:23;;;;;;;6.65;3.20;;;;;;;;;;5027214;28;38794;-79
2021/08/10 12:02:49;;;;;;;5.82;2.75;;;;;;;;;;5029398;28;37526;-79
2021/08/10 12:05:16;;;;;;;5.22;2.80;;;;;;;;;;5026953;28;39361;-79
2021/08/10 12:07:49;;;;;;;6.78;2.80;;;;;;;;;;5046076;28;40391;-79
2021/08/10 12:10:23;;;;;;;5.70;2.80;;;;;;;;;;5027550;28;38471;-79
2021/08/10 12:12:49;;;;;;;5.15;2.78;;;;;;;;;;5028265;28;38589;-78
2021/08/10 12:15:35;;;;;;;4.70;2.85;;;;;;;;;;5033871;28;39504;-79
2021/08/10 12:18:01;;;;;;;5.93;2.60;;;;;;;;;;5027948;28;39943;-81
2021/08/10 12:20:27;;;;;;;5.57;2.80;;;;;;;;;;5044254;28;48472;-79
2021/08/10 12:23:10;;;;;;;7.18;3.00;;;;;;;;;;5045060;28;37953;-78
2021/08/10 12:25:37;;;;;;;9.75;2.75;;;;;;;;;;5044017;28;48901;-79
2021/08/10 12:28:05;;;;;;;6.60;2.95;;;;;;;;;;5027323;28;38485;-78
2021/08/10 12:30:32;;;;;;;5.57;2.70;;;;;;;;;;5026938;28;38988;-78
2021/08/10 12:33:11;;;;;;;4.68;2.70;;;;;;;;;;5028977;28;37218;-79
2021/08/10 12:35:38;;;;;;;6.07;2.80;;;;;;;;;;5043834;28;48817;-79
2021/08/10 12:38:05;;;;;;;4.97;2.35;;;;;;;;;;5045374;28;39938;-79
2021/08/10 12:40:32;;;;;;;5.80;3.30;;;;;;;;;;5045369;28;38417;-80
2021/08/10 12:42:58;;;;;;;4.80;2.80;;;;;;;;;;5043861;28;37559;-80
2021/08/10 12:45:32;;;;;;;5.55;3.05;;;;;;;;;;5042504;28;39045;-79
2021/08/10 12:47:58;;;;;;;7.25;2.72;;;;;;;;;;5044781;28;39362;-81
2021/08/10 12:50:24;;;;;;;5.88;2.53;;;;;;;;;;5025493;28;38268;-79
2021/08/10 12:52:51;;;;;;;5.78;2.88;;;;;;;;;;5027706;28;38582;-79
2021/08/10 12:55:17;;;;;;;6.15;2.92;;;;;;;;;;5044680;28;39075;-80
2021/08/10 12:57:46;;;;;;;5.85;2.58;;;;;;;;;;5045454;28;38713;-80
2021/08/10 13:00:13;;;;;;;7.68;2.42;;;;;;;;;;5046107;28;38845;-77
2021/08/10 13:02:39;;;;;;;5.43;2.50;;;;;;;;;;5028822;28;37201;-79
2021/08/10 13:05:08;;;;;;;7.82;2.97;;;;;;;;;;5028274;28;39607;-81
2021/08/10 13:07:34;;;;;;;4.00;2.58;;;;;;;;;;5030862;28;47211;-81
2021/08/10 13:10:02;;;;;;;5.00;2.55;;;;;;;;;;5031034;28;40209;-79
2021/08/10 13:12:29;;;;;;;5.38;2.78;;;;;;;;;;5046886;28;37658;-79
2021/08/10 13:15:09;;;;;;;7.72;3.10;;;;;;;;;;5031249;28;38972;-78
2021/08/10 13:17:36;;;;;;;5.93;2.53;;;;;;;;;;5037913;28;48908;-78
2021/08/10 13:20:02;;;;;;;5.47;2.65;;;;;;;;;;5048023;28;39677;-79
2021/08/10 13:22:44;;;;;;;6.35;2.85;;;;;;;;;;5047135;28;37377;-79
2021/08/10 13:25:11;;;;;;;6.45;2.78;;;;;;;;;;5028378;28;40650;-77
2021/08/10 13:27:38;;;;;;;5.28;2.65;;;;;;;;;;5049144;28;39230;-79
2021/08/10 13:30:05;;;;;;;5.90;2.60;;;;;;;;;;5030246;28;39626;-79
2021/08/10 13:32:31;;;;;;;5.97;2.97;;;;;;;;;;5045361;28;47050;-79
2021/08/10 13:34:57;;;;;;;5.15;2.88;;;;;;;;;;5030805;28;40479;-78
2021/08/10 13:37:24;;;;;;;4.55;2.58;;;;;;;;;;5047842;28;39326;-78
2021/08/10 13:39:50;;;;;;;5.35;2.53;;;;;;;;;;5030620;28;39204;-78
2021/08/10 13:42:17;;;;;;;4.07;2.53;;;;;;;;;;5029452;28;35748;-80
2021/08/10 13:44:44;;;;;;;7.38;3.38;;;;;;;;;;5031179;28;39723;-78
2021/08/10 13:47:10;;;;;;;4.35;2.20;;;;;;;;;;5027788;28;39479;-78
2021/08/10 13:49:37;;;;;;;5.15;2.47;;;;;;;;;;5030185;28;39212;-78
2021/08/10 13:52:03;;;;;;;6.20;2.85;;;;;;;;;;5046892;28;37897;-77
2021/08/10 13:54:30;;;;;;;4.32;2.80;;;;;;;;;;5029496;28;40605;-75
2021/08/10 13:56:56;;;;;;;6.38;2.85;;;;;;;;;;5030705;28;37615;-80
2021/08/10 13:59:23;;;;;;;7.15;2.72;;;;;;;;;;5046723;28;38135;-78
2021/08/10 14:01:54;;;;;;;4.15;2.33;;;;;;;;;;5047271;28;36725;-78
2021/08/10 14:04:21;;;;;;;6.07;2.83;;;;;;;;;;5013497;28;39519;-78
2021/08/10 14:06:48;;;;;;;7.35;3.47;;;;;;;;;;5026499;28;39759;-79
2021/08/10 14:09:14;;;;;;;6.28;2.72;;;;;;;;;;5032781;28;38566;-77
2021/08/10 14:11:41;;;;;;;6.28;2.80;;;;;;;;;;5010898;28;36553;-78
2021/08/10 14:14:07;;;;;;;6.43;2.60;;;;;;;;;;5037868;28;39278;-78
2021/08/10 14:16:33;;;;;;;4.82;2.38;;;;;;;;;;5029054;28;39474;-77
2021/08/10 14:19:00;;;;;;;4.05;2.15;;;;;;;;;;5048501;28;38337;-78
2021/08/10 14:21:26;;;;;;;4.45;2.30;;;;;;;;;;5028067;28;37450;-77
2021/08/10 14:23:53;;;;;;;5.15;2.63;;;;;;;;;;5030453;28;39781;-79
2021/08/10 14:26:19;;;;;;;5.35;2.97;;;;;;;;;;5047336;28;38914;-78
2021/08/10 14:28:46;;;;;;;5.78;2.70;;;;;;;;;;5048450;28;38150;-77
2021/08/10 14:31:12;;;;;;;6.75;3.15;;;;;;;;;;5058417;28;38403;-78
2021/08/10 14:33:39;;;;;;;8.02;2.90;;;;;;;;;;5050548;28;39865;-77
2021/08/10 14:36:06;;;;;;;5.40;2.47;;;;;;;;;;5047282;28;39189;-77
2021/08/10 14:38:32;;;;;;;6.82;3.40;;;;;;;;;;5050562;28;39352;-77
2021/08/10 14:40:59;;;;;;;6.53;2.80;;;;;;;;;;5049279;28;35796;-78
2021/08/10 14:43:26;;;;;;;4.88;2.63;;;;;;;;;;5067144;28;39730;-78